Lincoln Thomas — WD12740 — position and weather

sailwx.info

Track history (hours):
 
Tides and Currents Weather Stations Pressure Air Temp Water Temp Dewpoint Dewpoint Depression Visibility Wind Speed Wind Dir Waves Ship Positions

Lincoln Thomas

Last reported at 2017-Oct-20 02:05 UTC. Time now 2017-Oct-20 03:27 UTC.
Position N 29°43' W 095°16'.

Length 20 m; draft 3 m.

Type: Towing. MMSI: 367812300.

Date/timePositionNaut miles runAvg speedWind from/ knotsBaromVisibWave heightAir tempDewpointWater temp
2017-Oct-20 02:05N 29°43' W 095°16'0 1.2
2017-Oct-20 02:00N 29°43' W 095°16'0 0.0
2017-Oct-19 14:29N 29°43' W 095°16'0 0.0
2017-Oct-19 14:00N 29°43' W 095°16'0 0.0
2017-Oct-19 13:28N 29°43' W 095°16'0 0.0
2017-Oct-19 13:00N 29°43' W 095°16'0 0.0
2017-Oct-19 12:12N 29°43' W 095°16'0 0.3
2017-Oct-19 12:00N 29°44' W 095°16'0 0.0
2017-Oct-19 11:30N 29°44' W 095°16'0 0.0
2017-Oct-19 11:00N 29°44' W 095°16'2 2.5
2017-Oct-19 10:21N 29°43' W 095°15'3 6.3
2017-Oct-19 09:54N 29°45' W 095°12'2 5.9
2017-Oct-19 09:29N 29°44' W 095°09'3 0.2
2017-Oct-18 12:44N 29°45' W 095°06'2 5.8
2017-Oct-18 12:29N 29°44' W 095°07'3 5.5
2017-Oct-18 12:00N 29°45' W 095°10'3 5.1
2017-Oct-18 11:30N 29°44' W 095°13'0 0.2
2017-Oct-18 11:00N 29°44' W 095°13'0 0.0
2017-Oct-18 10:30N 29°44' W 095°13'0 0.0
2017-Oct-18 09:58N 29°44' W 095°13'0 0.0
2017-Oct-18 09:29N 29°44' W 095°13'0 0.0
2017-Oct-18 09:00N 29°44' W 095°13'0 0.0
2017-Oct-18 08:30N 29°44' W 095°13'0 0.0
2017-Oct-18 07:12N 29°44' W 095°13'0 0.0
2017-Oct-18 07:00N 29°44' W 095°13'0 0.0
2017-Oct-18 06:28N 29°44' W 095°13'0 0.0
2017-Oct-18 06:00N 29°44' W 095°13'0 0.0
2017-Oct-18 05:30N 29°44' W 095°13'0 0.0
2017-Oct-18 05:00N 29°44' W 095°13'0 0.0
2017-Oct-18 04:29N 29°44' W 095°13'0 0.0
2017-Oct-18 04:00N 29°44' W 095°13'0 0.0
2017-Oct-18 03:30N 29°44' W 095°13'0 0.0
2017-Oct-18 02:59N 29°44' W 095°13'0 0.0
2017-Oct-18 02:29N 29°44' W 095°13'0 0.0
2017-Oct-18 01:57N 29°44' W 095°13'0 0.0
2017-Oct-18 01:30N 29°44' W 095°13'0 0.0
2017-Oct-18 00:24N 29°44' W 095°13'0 0.0
2017-Oct-17 15:08N 29°44' W 095°13'0 0.0
2017-Oct-17 14:49N 29°44' W 095°13'0 0.0
2017-Oct-17 14:21N 29°44' W 095°13'0 0.0
2017-Oct-17 13:54N 29°44' W 095°13'0 0.0
2017-Oct-17 13:29N 29°44' W 095°13'0 0.0
2017-Oct-17 12:57N 29°44' W 095°13'0 0.0
2017-Oct-17 12:29N 29°44' W 095°13'0 0.0
2017-Oct-17 12:00N 29°44' W 095°13'1 1.9
2017-Oct-17 11:29N 29°44' W 095°12'3 6.1
2017-Oct-17 11:00N 29°44' W 095°09'5 0.2
2017-Oct-16 12:46N 29°44' W 095°03'0 0.5
2017-Oct-16 12:03N 29°44' W 095°03'0 3.8
2017-Oct-16 12:00N 29°44' W 095°03'3 0.3
2017-Oct-16 02:07N 29°42' W 095°01'1 5.8
2017-Oct-16 01:55N 29°42' W 094°60'2 5.0
2017-Oct-16 01:30N 29°40' W 094°59'3 6.7
2017-Oct-16 01:00N 29°37' W 094°57'4 7.2
2017-Oct-16 00:30N 29°34' W 094°55'4 6.9
2017-Oct-15 23:58N 29°31' W 094°53'1 0.1
2017-Oct-15 09:47N 29°32' W 094°54'2 6.9
2017-Oct-15 09:30N 29°33' W 094°55'4 7.1
2017-Oct-15 09:00N 29°36' W 094°57'3 7.0
2017-Oct-15 08:30N 29°40' W 094°58'4 7.2
2017-Oct-15 08:00N 29°42' W 095°01'2 0.1
2017-Oct-14 14:21N 29°44' W 095°02'2 4.4
2017-Oct-14 13:55N 29°42' W 095°01'2 4.9
2017-Oct-14 13:30N 29°41' W 094°59'2 4.8
2017-Oct-14 13:00N 29°39' W 094°58'3 5.8
2017-Oct-14 12:30N 29°36' W 094°57'3 5.4
2017-Oct-14 12:00N 29°34' W 094°55'3 6.2
2017-Oct-14 11:30N 29°31' W 094°53'77 4.6
2017-Oct-13 18:42N 30°04' W 093°32'1 5.3
2017-Oct-13 18:30N 30°04' W 093°31'3 5.3
2017-Oct-13 18:00N 30°04' W 093°28'3 5.2
2017-Oct-13 17:30N 30°04' W 093°25'2 5.0
2017-Oct-13 17:00N 30°04' W 093°22'2 3.7
2017-Oct-13 16:30N 30°05' W 093°20'2 4.4
2017-Oct-13 16:00N 30°06' W 093°18'2 3.3
2017-Oct-13 15:30N 30°05' W 093°17'2 4.9
2017-Oct-13 15:00N 30°03' W 093°16'3 5.0
2017-Oct-13 14:30N 30°01' W 093°14'3 5.5
2017-Oct-13 14:00N 29°59' W 093°12'3 5.4
2017-Oct-13 13:30N 29°56' W 093°10'3 5.0
2017-Oct-13 13:00N 29°56' W 093°07'3 5.0
2017-Oct-13 12:30N 29°56' W 093°04'3 5.2
2017-Oct-13 12:00N 29°56' W 093°01'3 5.4
2017-Oct-13 11:27N 29°56' W 092°58'32 4.7
2017-Oct-13 04:41N 29°51' W 092°21'1 4.0
2017-Oct-13 04:30N 29°51' W 092°20'2 3.2
2017-Oct-13 04:00N 29°50' W 092°19'2 4.6
2017-Oct-13 03:30N 29°49' W 092°17'3 5.3
2017-Oct-13 03:00N 29°48' W 092°14'3 5.1
2017-Oct-13 02:30N 29°47' W 092°11'1 2.8
2017-Oct-13 02:00N 29°47' W 092°09'2 5.0
2017-Oct-13 01:30N 29°48' W 092°07'3 5.2
2017-Oct-13 01:00N 29°48' W 092°04'60 4.3
2017-Oct-12 10:56N 29°34' W 090°57'2 4.6
2017-Oct-12 10:30N 29°33' W 090°55'3 5.3
2017-Oct-12 09:54N 29°32' W 090°51'2 5.5
2017-Oct-12 09:30N 29°32' W 090°49'3 5.3
2017-Oct-12 09:00N 29°32' W 090°46'2 4.8
2017-Oct-12 08:30N 29°34' W 090°44'2 3.4
2017-Oct-12 08:00N 29°35' W 090°43'2 3.4
2017-Oct-12 07:30N 29°37' W 090°41'2 4.9
2017-Oct-12 07:00N 29°36' W 090°39'3 5.1
2017-Oct-12 06:30N 29°35' W 090°36'2 5.0
2017-Oct-12 06:00N 29°34' W 090°33'  
Track history (hours):
 
Tides and Currents Weather Stations Pressure Air Temp Water Temp Dewpoint Dewpoint Depression Visibility Wind Speed Wind Dir Waves Ship Positions

Lincoln Thomas

Last reported at 2017-Oct-20 02:05 UTC. Time now 2017-Oct-20 03:27 UTC.
Position N 29°43' W 095°16'.

Length 20 m; draft 3 m.

Type: Towing. MMSI: 367812300.

Date/timePositionNaut miles runAvg speedWind from/ knotsBaromVisibWave heightAir tempDewpointWater temp
2017-Oct-20 02:05N 29°43' W 095°16'0 1.2
2017-Oct-20 02:00N 29°43' W 095°16'0 0.0
2017-Oct-19 14:29N 29°43' W 095°16'0 0.0
2017-Oct-19 14:00N 29°43' W 095°16'0 0.0
2017-Oct-19 13:28N 29°43' W 095°16'0 0.0
2017-Oct-19 13:00N 29°43' W 095°16'0 0.0
2017-Oct-19 12:12N 29°43' W 095°16'0 0.3
2017-Oct-19 12:00N 29°44' W 095°16'0 0.0
2017-Oct-19 11:30N 29°44' W 095°16'0 0.0
2017-Oct-19 11:00N 29°44' W 095°16'2 2.5
2017-Oct-19 10:21N 29°43' W 095°15'3 6.3
2017-Oct-19 09:54N 29°45' W 095°12'2 5.9
2017-Oct-19 09:29N 29°44' W 095°09'3 0.2
2017-Oct-18 12:44N 29°45' W 095°06'2 5.8
2017-Oct-18 12:29N 29°44' W 095°07'3 5.5
2017-Oct-18 12:00N 29°45' W 095°10'3 5.1
2017-Oct-18 11:30N 29°44' W 095°13'0 0.2
2017-Oct-18 11:00N 29°44' W 095°13'0 0.0
2017-Oct-18 10:30N 29°44' W 095°13'0 0.0
2017-Oct-18 09:58N 29°44' W 095°13'0 0.0
2017-Oct-18 09:29N 29°44' W 095°13'0 0.0
2017-Oct-18 09:00N 29°44' W 095°13'0 0.0
2017-Oct-18 08:30N 29°44' W 095°13'0 0.0
2017-Oct-18 07:12N 29°44' W 095°13'0 0.0
2017-Oct-18 07:00N 29°44' W 095°13'0 0.0
2017-Oct-18 06:28N 29°44' W 095°13'0 0.0
2017-Oct-18 06:00N 29°44' W 095°13'0 0.0
2017-Oct-18 05:30N 29°44' W 095°13'0 0.0
2017-Oct-18 05:00N 29°44' W 095°13'0 0.0
2017-Oct-18 04:29N 29°44' W 095°13'0 0.0
2017-Oct-18 04:00N 29°44' W 095°13'0 0.0
2017-Oct-18 03:30N 29°44' W 095°13'0 0.0
2017-Oct-18 02:59N 29°44' W 095°13'0 0.0
2017-Oct-18 02:29N 29°44' W 095°13'0 0.0
2017-Oct-18 01:57N 29°44' W 095°13'0 0.0
2017-Oct-18 01:30N 29°44' W 095°13'0 0.0
2017-Oct-18 00:24N 29°44' W 095°13'0 0.0
2017-Oct-17 15:08N 29°44' W 095°13'0 0.0
2017-Oct-17 14:49N 29°44' W 095°13'0 0.0
2017-Oct-17 14:21N 29°44' W 095°13'0 0.0
2017-Oct-17 13:54N 29°44' W 095°13'0 0.0
2017-Oct-17 13:29N 29°44' W 095°13'0 0.0
2017-Oct-17 12:57N 29°44' W 095°13'0 0.0
2017-Oct-17 12:29N 29°44' W 095°13'0 0.0
2017-Oct-17 12:00N 29°44' W 095°13'1 1.9
2017-Oct-17 11:29N 29°44' W 095°12'3 6.1
2017-Oct-17 11:00N 29°44' W 095°09'5 0.2
2017-Oct-16 12:46N 29°44' W 095°03'0 0.5
2017-Oct-16 12:03N 29°44' W 095°03'0 3.8
2017-Oct-16 12:00N 29°44' W 095°03'3 0.3
2017-Oct-16 02:07N 29°42' W 095°01'1 5.8
2017-Oct-16 01:55N 29°42' W 094°60'2 5.0
2017-Oct-16 01:30N 29°40' W 094°59'3 6.7
2017-Oct-16 01:00N 29°37' W 094°57'4 7.2
2017-Oct-16 00:30N 29°34' W 094°55'4 6.9
2017-Oct-15 23:58N 29°31' W 094°53'1 0.1
2017-Oct-15 09:47N 29°32' W 094°54'2 6.9
2017-Oct-15 09:30N 29°33' W 094°55'4 7.1
2017-Oct-15 09:00N 29°36' W 094°57'3 7.0
2017-Oct-15 08:30N 29°40' W 094°58'4 7.2
2017-Oct-15 08:00N 29°42' W 095°01'2 0.1
2017-Oct-14 14:21N 29°44' W 095°02'2 4.4
2017-Oct-14 13:55N 29°42' W 095°01'2 4.9
2017-Oct-14 13:30N 29°41' W 094°59'2 4.8
2017-Oct-14 13:00N 29°39' W 094°58'3 5.8
2017-Oct-14 12:30N 29°36' W 094°57'3 5.4
2017-Oct-14 12:00N 29°34' W 094°55'3 6.2
2017-Oct-14 11:30N 29°31' W 094°53'77 4.6
2017-Oct-13 18:42N 30°04' W 093°32'1 5.3
2017-Oct-13 18:30N 30°04' W 093°31'3 5.3
2017-Oct-13 18:00N 30°04' W 093°28'3 5.2
2017-Oct-13 17:30N 30°04' W 093°25'2 5.0
2017-Oct-13 17:00N 30°04' W 093°22'2 3.7
2017-Oct-13 16:30N 30°05' W 093°20'2 4.4
2017-Oct-13 16:00N 30°06' W 093°18'2 3.3
2017-Oct-13 15:30N 30°05' W 093°17'2 4.9
2017-Oct-13 15:00N 30°03' W 093°16'3 5.0
2017-Oct-13 14:30N 30°01' W 093°14'3 5.5
2017-Oct-13 14:00N 29°59' W 093°12'3 5.4
2017-Oct-13 13:30N 29°56' W 093°10'3 5.0
2017-Oct-13 13:00N 29°56' W 093°07'3 5.0
2017-Oct-13 12:30N 29°56' W 093°04'3 5.2
2017-Oct-13 12:00N 29°56' W 093°01'3 5.4
2017-Oct-13 11:27N 29°56' W 092°58'32 4.7
2017-Oct-13 04:41N 29°51' W 092°21'1 4.0
2017-Oct-13 04:30N 29°51' W 092°20'2 3.2
2017-Oct-13 04:00N 29°50' W 092°19'2 4.6
2017-Oct-13 03:30N 29°49' W 092°17'3 5.3
2017-Oct-13 03:00N 29°48' W 092°14'3 5.1
2017-Oct-13 02:30N 29°47' W 092°11'1 2.8
2017-Oct-13 02:00N 29°47' W 092°09'2 5.0
2017-Oct-13 01:30N 29°48' W 092°07'3 5.2
2017-Oct-13 01:00N 29°48' W 092°04'60 4.3
2017-Oct-12 10:56N 29°34' W 090°57'2 4.6
2017-Oct-12 10:30N 29°33' W 090°55'3 5.3
2017-Oct-12 09:54N 29°32' W 090°51'2 5.5
2017-Oct-12 09:30N 29°32' W 090°49'3 5.3
2017-Oct-12 09:00N 29°32' W 090°46'2 4.8
2017-Oct-12 08:30N 29°34' W 090°44'2 3.4
2017-Oct-12 08:00N 29°35' W 090°43'2 3.4
2017-Oct-12 07:30N 29°37' W 090°41'2 4.9
2017-Oct-12 07:00N 29°36' W 090°39'3 5.1
2017-Oct-12 06:30N 29°35' W 090°36'2 5.0
2017-Oct-12 06:00N 29°34' W 090°33'  

Dump ship's entire track history